Time;durP1;ratioP1;P1;durP2;ratioP2;P2;SDS_P1;SDS_P2;PMS_P1;PMS_P2;Temp;Humidity;BMP_temperature;BMP_pressure;BME280_temperature;BME280_humidity;BME280_pressure;Samples;Min_cycle;Max_cycle;Signal;HPM_P1;HPM_P2
2021/01/15 00:00:42;;;;;;;105.03;78.20;;;;;;;2.73;83.67;100421.03;5073756;28;20506;-77
2021/01/15 00:03:47;;;;;;;99.75;75.78;;;;;;;2.77;83.29;100426.09;5074262;28;20036;-76
2021/01/15 00:07:02;;;;;;;98.80;74.63;;;;;;;2.79;83.51;100429.50;5074106;28;20051;-76
2021/01/15 00:10:07;;;;;;;104.03;73.95;;;;;;;2.86;83.68;100417.66;5085045;28;20055;-76
2021/01/15 00:13:11;;;;;;;92.82;69.65;;;;;;;2.93;83.35;100424.31;5074189;28;20040;-76
2021/01/15 00:16:32;;;;;;;93.38;72.38;;;;;;;2.96;83.17;100423.28;5074169;28;20067;-78
2021/01/15 00:19:37;;;;;;;96.72;74.13;;;;;;;2.97;83.24;100428.50;5084832;28;20048;-78
2021/01/15 00:22:41;;;;;;;;;;;;;;;2.90;83.49;100419.19;5073837;28;20056;-78
2021/01/15 00:25:45;;;;;;;105.40;74.97;;;;;;;2.82;83.98;100416.09;5074254;28;19916;-78
2021/01/15 00:28:49;;;;;;;100.18;75.68;;;;;;;2.89;83.85;100409.50;5073831;28;20041;-75
2021/01/15 00:31:53;;;;;;;100.03;72.05;;;;;;;2.93;83.92;100400.47;5073693;28;20062;-78
2021/01/15 00:34:58;;;;;;;99.65;75.07;;;;;;;2.91;84.09;100396.19;5073700;28;20037;-75
2021/01/15 00:38:02;;;;;;;99.45;75.28;;;;;;;2.89;84.08;100388.31;5073851;28;20047;-75
2021/01/15 00:41:08;;;;;;;100.55;75.05;;;;;;;2.98;84.14;100395.75;5073784;28;20064;-78
2021/01/15 00:44:13;;;;;;;99.18;75.47;;;;;;;3.04;84.29;100398.06;5074108;28;20049;-77
2021/01/15 00:47:17;;;;;;;95.75;73.05;;;;;;;3.12;83.85;100394.97;5073760;28;20048;-77
2021/01/15 00:50:22;;;;;;;99.93;73.05;;;;;;;3.20;83.39;100388.31;5072681;28;20063;-76
2021/01/15 00:53:26;;;;;;;93.07;71.18;;;;;;;3.24;83.35;100396.91;5072887;28;20048;-77
2021/01/15 00:56:31;;;;;;;100.15;74.50;;;;;;;3.25;83.29;100404.81;5084621;28;20051;-78
2021/01/15 00:59:35;;;;;;;94.05;74.22;;;;;;;3.29;83.32;100408.13;5084393;28;20052;-76
2021/01/15 01:03:00;;;;;;;95.63;71.65;;;;;;;3.32;83.45;100407.09;5083916;28;20056;-77
2021/01/15 01:06:15;;;;;;;91.05;71.07;;;;;;;3.35;83.40;100420.19;5073818;28;20051;-77
2021/01/15 01:09:19;;;;;;;94.75;73.53;;;;;;;3.37;83.47;100423.59;5073460;28;20055;-77
2021/01/15 01:12:24;;;;;;;93.20;73.32;;;;;;;3.38;83.51;100430.63;5073500;28;20056;-76
2021/01/15 01:15:28;;;;;;;98.00;72.72;;;;;;;3.39;83.55;100424.38;5083959;28;20044;-78
2021/01/15 01:18:34;;;;;;;100.90;76.63;;;;;;;3.40;83.64;100426.09;5073209;28;20052;-79
2021/01/15 01:21:37;;;;;;;91.30;73.07;;;;;;;3.41;83.42;100438.41;5073338;28;20040;-77
2021/01/15 01:24:41;;;;;;;104.00;77.70;;;;;;;3.36;83.57;100437.81;5073331;28;20063;-76
2021/01/15 01:27:45;;;;;;;101.90;75.80;;;;;;;3.36;83.87;100427.22;5072624;28;20040;-76
2021/01/15 01:30:51;;;;;;;102.30;74.63;;;;;;;3.37;83.67;100428.91;5073297;28;20036;-76
2021/01/15 01:33:54;;;;;;;95.53;73.30;;;;;;;3.33;83.54;100419.44;5073029;28;20040;-76
2021/01/15 01:36:58;;;;;;;93.85;75.75;;;;;;;3.30;83.63;100420.47;5073242;28;20064;-79
2021/01/15 01:40:04;;;;;;;99.10;74.18;;;;;;;3.32;83.62;100415.06;5073263;28;20051;-78
2021/01/15 01:43:09;;;;;;;94.93;72.97;;;;;;;3.25;83.75;100420.72;5072769;28;20048;-75
2021/01/15 01:46:13;;;;;;;96.68;74.82;;;;;;;3.28;83.72;100422.34;5073499;28;20357;-78
2021/01/15 01:49:17;;;;;;;95.45;74.88;;;;;;;3.28;83.80;100425.81;5076715;28;20064;-77
2021/01/15 01:52:20;;;;;;;;;;;;;;;3.26;83.56;100435.69;5077115;28;20051;-78
2021/01/15 01:55:24;;;;;;;97.97;72.18;;;;;;;3.25;83.68;100438.44;5076669;28;19917;-78
2021/01/15 01:58:30;;;;;;;103.30;75.80;;;;;;;3.20;83.68;100443.13;5076558;28;20047;-76
2021/01/15 02:01:35;;;;;;;103.03;74.97;;;;;;;3.17;83.84;100443.31;5075741;28;20045;-76
2021/01/15 02:04:39;;;;;;;93.43;74.22;;;;;;;3.18;84.17;100453.84;5075643;28;20391;-77
2021/01/15 02:07:43;;;;;;;96.63;74.30;;;;;;;3.13;84.44;100447.06;5076213;28;20044;-77
2021/01/15 02:10:52;;;;;;;96.57;74.32;;;;;;;3.13;84.76;100453.25;5076231;28;20483;-80
2021/01/15 02:14:23;;;;;;;101.60;78.13;;;;;;;3.07;84.70;100458.88;5087183;28;20502;-77
2021/01/15 02:17:34;;;;;;;108.63;79.45;;;;;;;2.98;85.23;100462.03;5079580;28;20036;-80
2021/01/15 02:21:00;;;;;;;102.90;78.25;;;;;;;2.96;85.13;100460.41;5096605;28;20040;-78
2021/01/15 02:24:24;;;;;;;98.70;74.55;;;;;;;3.00;85.31;100454.84;5096302;28;20040;-75
2021/01/15 02:28:05;;;;;;;95.03;73.75;;;;;;;3.00;85.14;100456.63;5095702;28;20051;-78
2021/01/15 02:31:18;;;;;;;103.95;77.20;;;;;;;3.01;84.96;100453.88;5096401;28;20066;-77
2021/01/15 02:34:40;;;;;;;91.75;71.82;;;;;;;3.04;85.26;100453.72;5095230;28;20451;-80
2021/01/15 02:38:06;;;;;;;92.85;71.38;;;;;;;3.08;85.00;100451.78;5096107;28;20051;-78
2021/01/15 02:41:23;;;;;;;101.32;72.95;;;;;;;3.01;84.91;100443.28;5096078;28;20506;-76
2021/01/15 02:44:29;;;;;;;96.95;74.97;;;;;;;2.94;85.25;100447.22;5095744;28;20032;-76
2021/01/15 02:47:53;;;;;;;95.72;73.90;;;;;;;2.93;85.19;100449.97;5095535;28;20051;-76
2021/01/15 02:51:01;;;;;;;95.90;73.38;;;;;;;2.81;85.44;100440.03;5095834;28;20047;-77
2021/01/15 02:54:06;;;;;;;97.25;74.03;;;;;;;2.75;85.99;100446.53;5095697;28;20047;-78
2021/01/15 02:57:10;;;;;;;102.57;74.22;;;;;;;2.73;86.32;100439.59;5095850;28;20055;-77
2021/01/15 03:00:17;;;;;;;94.97;71.88;;;;;;;2.76;86.20;100442.09;5095270;28;20048;-75
2021/01/15 03:03:45;;;;;;;93.57;72.25;;;;;;;2.72;86.49;100435.22;5095689;28;20071;-76
2021/01/15 03:06:58;;;;;;;97.72;72.72;;;;;;;2.76;86.50;100442.09;5095518;28;20051;-79
2021/01/15 03:10:04;;;;;;;91.53;70.57;;;;;;;2.72;86.68;100444.03;5095186;28;20054;-79
2021/01/15 03:13:09;;;;;;;91.45;69.68;;;;;;;2.69;86.57;100446.00;5095587;28;20043;-79
2021/01/15 03:16:14;;;;;;;99.15;69.00;;;;;;;2.69;86.51;100438.06;5095332;28;20051;-78
2021/01/15 03:19:18;;;;;;;89.22;68.00;;;;;;;2.76;86.48;100450.91;5094802;28;20067;-79
2021/01/15 03:22:24;;;;;;;85.32;65.75;;;;;;;2.77;86.27;100449.06;5094503;28;20059;-79
2021/01/15 03:25:28;;;;;;;92.13;66.43;;;;;;;2.84;86.42;100455.78;5095084;28;20071;-78
2021/01/15 03:28:32;;;;;;;84.68;63.05;;;;;;;2.82;85.83;100457.63;5095430;28;20047;-77
2021/01/15 03:31:39;;;;;;;84.28;63.88;;;;;;;2.84;86.51;100456.63;5094912;28;20055;-76
2021/01/15 03:34:43;;;;;;;82.72;62.63;;;;;;;2.88;86.06;100465.28;5094915;28;20051;-76
2021/01/15 03:37:49;;;;;;;84.55;63.70;;;;;;;2.90;86.09;100463.38;5094085;28;20055;-77
2021/01/15 03:40:53;;;;;;;82.25;64.68;;;;;;;2.93;85.98;100458.78;5094835;28;20055;-76
2021/01/15 03:43:58;;;;;;;82.65;62.58;;;;;;;2.96;85.86;100450.63;5094768;28;20430;-76
2021/01/15 03:47:02;;;;;;;80.05;61.25;;;;;;;2.99;85.81;100457.56;5094607;28;20391;-77
2021/01/15 03:50:07;;;;;;;81.45;62.85;;;;;;;2.98;85.69;100463.81;5094053;28;20055;-76
2021/01/15 03:53:15;;;;;;;82.65;61.85;;;;;;;2.98;85.64;100458.53;5094821;28;20055;-78
2021/01/15 03:56:19;;;;;;;78.82;62.05;;;;;;;3.00;85.59;100461.94;5094218;28;20043;-77
2021/01/15 03:59:23;;;;;;;82.55;59.20;;;;;;;3.00;85.64;100462.81;5094514;28;20047;-79
2021/01/15 04:02:31;;;;;;;77.70;63.17;;;;;;;2.97;85.49;100475.34;5094781;28;20051;-79
2021/01/15 04:05:35;;;;;;;84.80;65.32;;;;;;;2.92;85.79;100466.81;5094349;28;20494;-78
2021/01/15 04:08:40;;;;;;;80.28;61.70;;;;;;;2.93;85.80;100472.03;5093629;28;20494;-77
2021/01/15 04:11:44;;;;;;;85.10;65.40;;;;;;;2.94;85.77;100471.09;5094356;28;20047;-79
2021/01/15 04:14:48;;;;;;;82.60;63.63;;;;;;;2.95;85.66;100466.63;5094298;28;20062;-79
2021/01/15 04:17:52;;;;;;;79.28;62.88;;;;;;;2.96;86.08;100471.84;5094364;28;20047;-77
2021/01/15 04:20:56;;;;;;;84.88;64.43;;;;;;;2.94;85.95;100473.72;5093947;28;20058;-79
2021/01/15 04:24:00;;;;;;;88.03;65.97;;;;;;;2.88;86.36;100470.56;5093821;28;20051;-77
2021/01/15 04:27:05;;;;;;;82.20;63.47;;;;;;;2.91;86.15;100470.41;5092921;28;20510;-77
2021/01/15 04:30:13;;;;;;;83.53;65.60;;;;;;;2.88;86.00;100468.78;5094139;28;20051;-79
2021/01/15 04:33:17;;;;;;;82.53;64.82;;;;;;;2.88;86.26;100468.78;5093862;28;20043;-77
2021/01/15 04:36:22;;;;;;;87.30;66.82;;;;;;;2.89;86.25;100465.16;5094178;28;20047;-79
2021/01/15 04:39:26;;;;;;;84.30;65.82;;;;;;;2.89;86.29;100459.88;5094347;28;20051;-79
2021/01/15 04:42:32;;;;;;;83.03;63.55;;;;;;;2.93;86.32;100460.56;5094373;28;20047;-77
2021/01/15 04:45:37;;;;;;;81.07;63.67;;;;;;;2.91;86.22;100465.97;5094344;28;20055;-79
2021/01/15 04:48:47;;;;;;;81.32;62.45;;;;;;;2.91;86.08;100463.31;5093487;28;20059;-77
2021/01/15 04:52:00;;;;;;;81.47;62.38;;;;;;;2.88;86.02;100460.81;5093703;28;20051;-79
2021/01/15 04:55:05;;;;;;;86.55;64.78;;;;;;;2.84;86.15;100453.97;5093275;28;20055;-76
2021/01/15 04:58:11;;;;;;;83.20;64.13;;;;;;;2.79;85.85;100461.31;5093822;28;20394;-76
2021/01/15 05:01:16;;;;;;;81.57;64.38;;;;;;;2.72;86.68;100462.59;5092592;28;20055;-76
2021/01/15 05:04:21;;;;;;;80.05;63.85;;;;;;;2.66;86.59;100460.28;5093650;28;20054;-77
2021/01/15 05:07:29;;;;;;;83.85;66.05;;;;;;;2.65;86.97;100469.16;5093968;28;20051;-75
2021/01/15 05:10:40;;;;;;;82.95;63.80;;;;;;;2.65;87.01;100461.22;5093121;28;20051;-77
2021/01/15 05:13:45;;;;;;;78.82;62.47;;;;;;;2.66;87.08;100465.59;5093703;28;20066;-78
2021/01/15 05:16:50;;;;;;;83.10;63.42;;;;;;;2.67;86.89;100469.94;5093887;28;20051;-77
2021/01/15 05:19:57;;;;;;;81.55;64.40;;;;;;;2.61;86.86;100464.97;5093608;28;20043;-77
2021/01/15 05:23:06;;;;;;;81.90;61.50;;;;;;;2.57;87.03;100466.06;5096787;28;20052;-78
2021/01/15 05:26:14;;;;;;;77.65;61.00;;;;;;;2.58;87.25;100473.06;5097303;28;20047;-77
2021/01/15 05:29:17;;;;;;;80.75;62.30;;;;;;;2.54;87.25;100480.31;5097328;28;20071;-76
2021/01/15 05:32:29;;;;;;;77.35;61.17;;;;;;;2.53;87.13;100485.72;5096826;28;20055;-78
2021/01/15 05:35:47;;;;;;;76.10;60.55;;;;;;;2.50;87.23;100486.72;5097251;28;20051;-80
2021/01/15 05:39:06;;;;;;;79.28;61.40;;;;;;;2.49;87.11;100481.53;5097295;28;20063;-79
2021/01/15 05:42:10;;;;;;;75.57;58.50;;;;;;;2.51;87.21;100490.22;5097412;28;20040;-80
2021/01/15 05:45:16;;;;;;;77.50;59.55;;;;;;;2.52;87.48;100489.28;5076399;28;20055;-76
2021/01/15 05:48:26;;;;;;;80.45;60.58;;;;;;;2.47;87.26;100489.53;5076709;28;20047;-76
2021/01/15 05:51:35;;;;;;;78.95;59.67;;;;;;;2.48;87.17;100504.50;5076329;28;20056;-76
2021/01/15 05:54:39;;;;;;;81.07;61.13;;;;;;;2.46;87.09;100495.78;5076827;28;20052;-79
2021/01/15 05:57:47;;;;;;;73.72;58.65;;;;;;;2.45;87.21;100507.31;5087241;28;20047;-77
2021/01/15 06:00:52;;;;;;;80.60;61.53;;;;;;;2.43;87.11;100503.03;5076507;28;20060;-76
2021/01/15 06:03:55;;;;;;;76.63;60.60;;;;;;;2.40;87.17;100505.81;5076381;28;20063;-75
2021/01/15 06:07:09;;;;;;;76.43;59.38;;;;;;;2.41;87.28;100515.50;5076161;28;20052;-76
2021/01/15 06:10:13;;;;;;;83.72;61.38;;;;;;;2.36;87.44;100520.16;5076219;28;20056;-79
2021/01/15 06:13:38;;;;;;;;;;;;;;;2.31;87.38;100519.53;5076598;28;20059;-78
2021/01/15 06:16:42;;;;;;;78.95;61.72;;;;;;;2.29;87.67;100526.72;5075849;28;19916;-78
2021/01/15 06:19:47;;;;;;;79.97;63.20;;;;;;;2.27;87.84;100528.59;5076114;28;20043;-78
2021/01/15 06:22:54;;;;;;;84.82;63.55;;;;;;;2.27;88.05;100533.91;5075541;28;20047;-78
2021/01/15 06:25:59;;;;;;;82.10;65.25;;;;;;;2.19;88.28;100536.94;5075964;28;20383;-76
2021/01/15 06:29:09;;;;;;;86.93;64.68;;;;;;;2.14;88.34;100540.72;5075818;28;20063;-79
2021/01/15 06:32:24;;;;;;;85.30;65.05;;;;;;;2.11;88.46;100539.09;5075293;28;20395;-80
2021/01/15 06:35:34;;;;;;;88.95;64.50;;;;;;;2.05;88.61;100535.91;5075908;28;20051;-79
2021/01/15 06:38:38;;;;;;;80.68;61.25;;;;;;;2.05;88.81;100536.75;5075915;28;20048;-76
2021/01/15 06:41:43;;;;;;;83.68;62.75;;;;;;;2.07;88.89;100536.69;5075939;28;20055;-75
2021/01/15 06:44:54;;;;;;;80.32;61.67;;;;;;;2.11;88.82;100549.69;5075184;28;20063;-81
2021/01/15 06:48:08;;;;;;;84.88;63.53;;;;;;;2.13;88.72;100536.34;5075529;28;20517;-82
2021/01/15 06:51:12;;;;;;;85.05;62.55;;;;;;;2.11;88.67;100532.94;5081452;28;20509;-82
2021/01/15 06:54:33;;;;;;;83.20;61.80;;;;;;;2.04;88.82;100532.41;5093127;28;20052;-82
2021/01/15 06:57:38;;;;;;;80.32;61.85;;;;;;;2.00;88.85;100533.47;5075205;28;20052;-81
2021/01/15 07:01:09;;;;;;;82.82;62.75;;;;;;;2.04;88.86;100535.03;5074777;28;20510;-78
2021/01/15 07:04:29;;;;;;;85.40;64.13;;;;;;;2.10;88.48;100541.84;5070073;28;20044;-82
2021/01/15 07:07:33;;;;;;;75.85;60.13;;;;;;;2.12;88.39;100542.59;5077877;28;20043;-80
2021/01/15 07:10:37;;;;;;;84.57;64.20;;;;;;;2.14;88.42;100538.94;5095234;28;20055;-77
2021/01/15 07:13:46;;;;;;;84.38;64.80;;;;;;;2.09;88.45;100542.75;5094522;28;20430;-79
2021/01/15 07:16:54;;;;;;;76.43;60.08;;;;;;;2.20;88.26;100551.03;5093370;28;20043;-78
2021/01/15 07:20:17;;;;;;;79.82;61.55;;;;;;;2.24;88.13;100552.56;5093255;28;20528;-79
2021/01/15 07:23:48;;;;;;;78.03;59.78;;;;;;;2.15;88.04;100561.81;5094351;28;20506;-82
2021/01/15 07:26:53;;;;;;;80.47;60.08;;;;;;;2.19;88.20;100566.06;5083398;28;20522;-77
2021/01/15 07:29:58;;;;;;;82.38;58.53;;;;;;;2.32;88.00;100564.47;5085443;28;20058;-78
2021/01/15 07:33:06;;;;;;;130.98;97.25;;;;;;;2.40;87.87;100574.69;5074784;28;20499;-77
2021/01/15 07:36:31;;;;;;;138.18;99.20;;;;;;;2.43;87.63;100567.47;5074592;28;20040;-77
2021/01/15 07:39:35;;;;;;;88.05;59.03;;;;;;;2.48;87.08;100577.81;5087444;28;20036;-77
2021/01/15 07:42:59;;;;;;;68.82;50.70;;;;;;;2.54;86.88;100581.00;5094767;28;20070;-79
2021/01/15 07:46:04;;;;;;;64.65;48.85;;;;;;;2.66;86.39;100571.56;5092401;28;20047;-77
2021/01/15 07:49:08;;;;;;;64.30;48.97;;;;;;;2.72;85.51;100580.97;5092558;28;20047;-74
2021/01/15 07:52:13;;;;;;;63.70;47.20;;;;;;;2.75;85.11;100583.47;5092597;28;20043;-77
2021/01/15 07:55:17;;;;;;;60.85;47.00;;;;;;;2.75;85.28;100594.06;5094576;28;20051;-77
2021/01/15 07:58:41;;;;;;;61.38;47.03;;;;;;;2.87;84.99;100604.91;5088514;28;20039;-77
2021/01/15 08:01:47;;;;;;;57.15;44.03;;;;;;;3.03;84.35;100604.97;5092083;28;20039;-76
2021/01/15 08:05:03;;;;;;;60.58;44.13;;;;;;;3.23;83.87;100602.09;5071311;28;20059;-80
2021/01/15 08:08:10;;;;;;;53.90;40.42;;;;;;;3.34;83.06;100610.31;5072866;28;20052;-80
2021/01/15 08:11:14;;;;;;;53.92;41.95;;;;;;;3.48;82.80;100613.06;5089552;28;20052;-77
2021/01/15 08:14:23;;;;;;;60.15;43.63;;;;;;;3.64;82.17;100610.44;5092501;28;20059;-80
2021/01/15 08:17:27;;;;;;;51.80;40.13;;;;;;;3.86;81.46;100611.81;5092298;28;20411;-79
2021/01/15 08:20:32;;;;;;;53.50;38.75;;;;;;;4.12;80.50;100620.13;5093980;28;20501;-79
2021/01/15 08:23:36;;;;;;;49.67;36.97;;;;;;;4.32;79.35;100622.50;5073082;28;20051;-80
2021/01/15 08:26:53;;;;;;;51.10;38.47;;;;;;;4.54;78.42;100621.13;5073678;28;20407;-79
2021/01/15 08:30:06;;;;;;;49.65;38.05;;;;;;;4.65;77.65;100619.66;5090249;28;20051;-79
2021/01/15 08:33:13;;;;;;;45.85;36.90;;;;;;;4.80;77.41;100624.91;5093807;28;20051;-78
2021/01/15 08:36:18;;;;;;;50.97;39.40;;;;;;;4.93;76.72;100625.03;5092851;28;20047;-79
2021/01/15 08:39:22;;;;;;;52.00;40.25;;;;;;;5.34;75.60;100626.03;5093578;28;20055;-79
2021/01/15 08:42:30;;;;;;;53.05;39.55;;;;;;;5.82;73.44;100632.75;5093936;28;20047;-78
2021/01/15 08:45:35;;;;;;;46.17;36.25;;;;;;;6.40;71.54;100635.16;5073381;28;20418;-81
2021/01/15 08:48:40;;;;;;;45.95;35.85;;;;;;;10.40;60.07;100623.72;5073239;28;20048;-80
2021/01/15 08:51:50;;;;;;;44.55;34.53;;;;;;;11.61;53.04;100631.22;5073154;28;20040;-79
2021/01/15 08:54:58;;;;;;;41.65;32.22;;;;;;;11.99;51.30;100626.03;5073172;28;20364;-80
2021/01/15 08:58:04;;;;;;;39.58;31.30;;;;;;;13.48;47.53;100627.34;5079967;28;20052;-78
2021/01/15 09:01:25;;;;;;;39.10;29.13;;;;;;;12.20;49.09;100626.78;5081377;28;20044;-79
2021/01/15 09:04:34;;;;;;;40.42;30.48;;;;;;;10.49;53.18;100640.91;5097340;28;20475;-81
2021/01/15 09:07:46;;;;;;;38.83;31.90;;;;;;;9.80;56.20;100652.84;5097041;28;20379;-78
2021/01/15 09:10:51;;;;;;;42.75;31.63;;;;;;;8.48;60.19;100657.75;5096967;28;20509;-80
2021/01/15 09:13:57;;;;;;;39.50;32.53;;;;;;;8.03;62.06;100662.88;5095784;28;20051;-80
2021/01/15 09:17:05;;;;;;;42.05;33.85;;;;;;;7.55;64.46;100661.91;5076453;28;20056;-81
2021/01/15 09:20:10;;;;;;;52.30;35.75;;;;;;;7.05;66.53;100674.28;5076321;28;20068;-79
2021/01/15 09:23:15;;;;;;;41.42;34.60;;;;;;;6.94;67.29;100670.63;5076126;28;20064;-80
2021/01/15 09:26:19;;;;;;;42.85;35.08;;;;;;;6.85;67.73;100681.91;5076449;28;20051;-78
2021/01/15 09:29:24;;;;;;;45.97;36.22;;;;;;;6.67;68.54;100683.13;5075991;28;20225;-79
2021/01/15 09:32:28;;;;;;;47.22;36.95;;;;;;;6.50;69.35;100686.94;5076212;28;20056;-78
2021/01/15 09:35:33;;;;;;;48.25;37.50;;;;;;;6.57;69.52;100685.56;5076185;28;20056;-78
2021/01/15 09:38:37;;;;;;;47.95;37.38;;;;;;;6.54;69.43;100689.28;5076036;28;20059;-77
2021/01/15 09:41:52;;;;;;;52.05;38.25;;;;;;;6.60;69.96;100685.38;5076082;28;20055;-79
2021/01/15 09:44:56;;;;;;;45.50;36.00;;;;;;;6.29;69.96;100693.69;5092751;28;20055;-80
2021/01/15 09:48:06;;;;;;;43.72;34.30;;;;;;;6.00;70.28;100695.53;5095895;28;20063;-80
2021/01/15 09:51:11;;;;;;;45.17;35.20;;;;;;;6.08;70.69;100697.69;5095150;28;20047;-79
2021/01/15 09:54:15;;;;;;;50.70;36.08;;;;;;;6.10;70.96;100690.50;5086608;28;20043;-82
2021/01/15 09:57:19;;;;;;;46.30;36.17;;;;;;;6.14;70.71;100692.84;5077646;28;20455;-81
2021/01/15 10:00:24;;;;;;;50.05;36.80;;;;;;;6.18;70.85;100705.00;5073520;28;20067;-80
2021/01/15 10:03:28;;;;;;;45.83;32.55;;;;;;;6.05;70.23;100697.91;5076135;28;20047;-82
2021/01/15 10:06:44;;;;;;;43.72;33.75;;;;;;;5.95;70.06;100694.97;5095213;28;20043;-81
2021/01/15 10:09:48;;;;;;;41.55;31.08;;;;;;;6.07;69.68;100690.69;5095254;28;20068;-81
2021/01/15 10:12:53;;;;;;;42.63;32.40;;;;;;;6.27;69.39;100690.25;5096044;28;20051;-78
2021/01/15 10:15:57;;;;;;;45.60;34.00;;;;;;;6.37;69.23;100686.88;5095457;28;20398;-81
2021/01/15 10:19:01;;;;;;;48.75;35.38;;;;;;;6.45;69.00;100697.03;5096051;28;20113;-80
2021/01/15 10:22:06;;;;;;;41.88;32.08;;;;;;;6.43;68.95;100693.63;5074375;28;20067;-81
2021/01/15 10:25:11;;;;;;;39.88;29.90;;;;;;;6.48;67.71;100703.03;5074497;28;20052;-79
2021/01/15 10:28:15;;;;;;;37.53;26.42;;;;;;;6.51;66.96;100693.97;5075383;28;20056;-81
2021/01/15 10:31:19;;;;;;;39.78;28.65;;;;;;;6.60;67.37;100689.84;5074947;28;20411;-78
2021/01/15 10:34:25;;;;;;;41.97;30.63;;;;;;;6.52;67.96;100691.19;5080452;28;20047;-79
2021/01/15 10:37:29;;;;;;;39.10;29.73;;;;;;;6.39;67.25;100684.13;5095522;28;20055;-80
2021/01/15 10:40:34;;;;;;;48.88;35.88;;;;;;;6.35;68.71;100687.94;5095308;28;20051;-80
2021/01/15 10:43:38;;;;;;;48.20;37.42;;;;;;;6.39;69.67;100684.13;5095511;28;20055;-80
2021/01/15 10:46:44;;;;;;;50.47;39.97;;;;;;;6.51;70.14;100688.66;5095148;28;20047;-82
2021/01/15 10:49:48;;;;;;;49.33;36.55;;;;;;;6.43;69.36;100681.16;5094170;28;20055;-78
2021/01/15 10:52:56;;;;;;;46.22;36.30;;;;;;;6.45;69.05;100675.72;5095044;28;20058;-80
2021/01/15 10:56:00;;;;;;;46.90;32.65;;;;;;;6.57;68.28;100689.09;5091973;28;20415;-81
2021/01/15 10:59:08;;;;;;;36.20;29.08;;;;;;;6.72;66.72;100673.88;5094395;28;20047;-80
2021/01/15 11:02:13;;;;;;;32.30;23.67;;;;;;;6.54;65.13;100681.28;5074910;28;20052;-80
2021/01/15 11:05:18;;;;;;;34.60;22.80;;;;;;;6.58;64.81;100673.94;5082639;28;20047;-82
2021/01/15 11:08:22;;;;;;;30.88;24.25;;;;;;;6.66;64.85;100668.97;5094838;28;20051;-81
2021/01/15 11:11:25;;;;;;;;;;;;;;;6.75;65.00;100668.34;5094112;28;20051;-77
2021/01/15 11:14:30;;;;;;;33.97;25.98;;;;;;;6.74;65.01;100663.97;5094980;28;20359;-80
2021/01/15 11:17:39;;;;;;;39.08;29.67;;;;;;;6.77;65.48;100668.22;5082303;28;20047;-79
2021/01/15 11:20:24;;;;;;;38.88;30.92;;;;;;;6.83;66.13;100666.03;5094877;28;20051;-77
2021/01/15 11:23:29;;;;;;;37.13;30.20;;;;;;;6.85;66.19;100657.91;5094433;28;20067;-80
2021/01/15 11:26:33;;;;;;;33.85;23.48;;;;;;;6.65;64.76;100653.91;5093820;28;20047;-79
2021/01/15 11:29:38;;;;;;;32.47;22.65;;;;;;;6.88;63.78;100652.38;5092553;28;20047;-78
2021/01/15 11:32:43;;;;;;;30.40;23.77;;;;;;;6.81;63.79;100654.63;5093269;28;20427;-78
2021/01/15 11:35:47;;;;;;;31.52;23.60;;;;;;;7.05;63.29;100642.25;5094174;28;20498;-79
2021/01/15 11:38:51;;;;;;;38.80;27.08;;;;;;;7.05;63.52;100633.41;5094762;28;20078;-77
2021/01/15 11:41:55;;;;;;;34.42;25.25;;;;;;;7.11;63.92;100638.31;5094183;28;20043;-80
2021/01/15 11:45:00;;;;;;;41.63;27.60;;;;;;;7.03;64.53;100630.84;5094443;28;20149;-79
2021/01/15 11:48:05;;;;;;;36.50;26.17;;;;;;;6.90;64.76;100640.63;5093970;28;20043;-79
2021/01/15 11:51:10;;;;;;;32.75;22.70;;;;;;;6.33;64.76;100633.88;5093839;28;20437;-79
2021/01/15 11:54:14;;;;;;;31.35;22.60;;;;;;;6.15;65.56;100641.25;5094416;28;20039;-78
2021/01/15 11:57:18;;;;;;;30.58;20.08;;;;;;;6.06;65.84;100635.66;5093819;28;20055;-78
2021/01/15 12:00:22;;;;;;;27.73;21.15;;;;;;;5.88;66.41;100630.56;5093207;28;20387;-77
2021/01/15 12:03:27;;;;;;;33.00;21.42;;;;;;;5.98;67.12;100627.31;5071374;28;20055;-77
2021/01/15 12:06:34;;;;;;;31.05;19.52;;;;;;;6.28;66.41;100626.16;5081611;28;20039;-78
2021/01/15 12:09:39;;;;;;;25.77;19.00;;;;;;;6.28;65.98;100625.31;5093210;28;20039;-80
2021/01/15 12:12:43;;;;;;;27.08;17.10;;;;;;;6.36;65.30;100623.88;5093194;28;20263;-79
2021/01/15 12:15:51;;;;;;;26.27;18.02;;;;;;;6.30;65.88;100618.06;5092329;28;20055;-80
2021/01/15 12:18:56;;;;;;;26.67;17.65;;;;;;;6.17;66.09;100614.50;5073124;28;20059;-81
2021/01/15 12:22:00;;;;;;;24.30;17.23;;;;;;;6.26;65.67;100616.56;5072745;28;20059;-81
2021/01/15 12:25:06;;;;;;;26.13;17.17;;;;;;;6.30;65.95;100607.41;5073173;28;20044;-80
2021/01/15 12:28:13;;;;;;;24.05;16.13;;;;;;;6.45;65.83;100606.38;5072258;28;20063;-81
2021/01/15 12:31:17;;;;;;;21.63;16.27;;;;;;;6.47;65.61;100604.47;5089776;28;20062;-79
2021/01/15 12:34:21;;;;;;;21.77;15.52;;;;;;;6.29;66.18;100605.72;5069228;28;20494;-79
2021/01/15 12:37:26;;;;;;;24.98;15.18;;;;;;;6.22;65.97;100610.56;5069789;28;20063;-80
2021/01/15 12:40:30;;;;;;;21.55;13.10;;;;;;;6.04;65.66;100608.25;5069793;28;20056;-78
2021/01/15 12:43:35;;;;;;;19.00;12.82;;;;;;;6.11;65.91;100612.25;5069873;28;20439;-80
2021/01/15 12:46:39;;;;;;;18.75;12.05;;;;;;;6.01;66.33;100606.66;5069884;28;20044;-81
2021/01/15 12:49:44;;;;;;;20.23;12.63;;;;;;;6.26;65.96;100601.44;5072259;28;20043;-80
2021/01/15 12:52:48;;;;;;;20.20;11.52;;;;;;;5.98;65.93;100598.84;5072096;28;20368;-78
2021/01/15 12:55:51;;;;;;;;;;;;;;;5.71;67.09;100603.25;5073284;28;20056;-82
2021/01/15 12:58:56;;;;;;;18.27;10.75;;;;;;;5.78;66.87;100597.44;5084019;28;19916;-80
2021/01/15 13:02:00;;;;;;;17.33;11.45;;;;;;;5.87;66.95;100594.25;5072093;28;20055;-79
2021/01/15 13:05:05;;;;;;;22.33;11.00;;;;;;;5.78;67.47;100597.44;5072776;28;20055;-80
2021/01/15 13:08:09;;;;;;;22.33;13.50;;;;;;;5.77;68.26;100602.88;5070972;28;20506;-80
2021/01/15 13:11:13;;;;;;;19.17;13.93;;;;;;;5.83;67.56;100598.00;5071961;28;20047;-79
2021/01/15 13:14:17;;;;;;;53.35;35.60;;;;;;;5.87;68.14;100598.72;5073581;28;20056;-80
2021/01/15 13:17:22;;;;;;;21.88;14.30;;;;;;;5.69;68.28;100599.84;5073635;28;20495;-79
2021/01/15 13:20:28;;;;;;;18.98;12.05;;;;;;;5.53;68.59;100599.13;5075073;28;20070;-78
2021/01/15 13:23:32;;;;;;;18.60;12.05;;;;;;;5.51;68.65;100601.88;5074554;28;20055;-85
2021/01/15 13:26:36;;;;;;;;;;;;;;;5.65;68.53;100595.69;5082896;28;20147;-80
2021/01/15 13:29:41;;;;;;;25.17;13.85;;;;;;;5.66;68.42;100602.69;5092350;28;19916;-81
2021/01/15 13:32:45;;;;;;;14.90;10.48;;;;;;;5.56;68.63;100609.56;5080983;28;20060;-76
2021/01/15 13:35:50;;;;;;;20.13;11.32;;;;;;;5.59;68.78;100612.03;5090559;28;20364;-79
2021/01/15 13:38:54;;;;;;;18.63;11.88;;;;;;;5.47;69.12;100619.00;5072608;28;20044;-80
2021/01/15 13:41:58;;;;;;;22.25;11.90;;;;;;;5.36;69.31;100621.44;5072850;28;20059;-78
2021/01/15 13:45:05;;;;;;;52.10;29.92;;;;;;;5.33;69.85;100623.47;5076485;28;20044;-78
2021/01/15 13:48:09;;;;;;;34.75;21.08;;;;;;;5.32;69.72;100622.59;5088904;28;20043;-77
2021/01/15 13:51:16;;;;;;;22.33;10.95;;;;;;;5.26;70.82;100626.50;5096183;28;20047;-77
2021/01/15 13:54:21;;;;;;;21.38;12.35;;;;;;;5.25;70.84;100627.47;5095893;28;20395;-77
2021/01/15 13:57:25;;;;;;;20.85;11.95;;;;;;;5.17;70.42;100626.22;5096143;28;20063;-77
2021/01/15 14:00:29;;;;;;;22.02;13.48;;;;;;;5.14;70.59;100629.03;5075797;28;20055;-79
2021/01/15 14:03:33;;;;;;;26.75;13.55;;;;;;;5.23;70.46;100633.81;5083920;28;20047;-77
2021/01/15 14:06:38;;;;;;;20.67;10.98;;;;;;;5.26;70.67;100629.16;5095109;28;20090;-77
2021/01/15 14:09:43;;;;;;;19.42;13.35;;;;;;;5.35;70.71;100632.22;5093401;28;20043;-79
2021/01/15 14:12:48;;;;;;;25.80;14.27;;;;;;;5.37;70.68;100627.63;5079189;28;20064;-78
2021/01/15 14:15:53;;;;;;;18.02;11.63;;;;;;;5.24;70.48;100636.38;5095416;28;20407;-78
2021/01/15 14:18:57;;;;;;;20.00;10.85;;;;;;;5.24;70.74;100636.38;5095849;28;20051;-80
2021/01/15 14:22:01;;;;;;;26.75;10.85;;;;;;;5.17;71.25;100639.50;5095820;28;20403;-77